Time;durP1;ratioP1;P1;durP2;ratioP2;P2;SDS_P1;SDS_P2;PMS_P1;PMS_P2;Temp;Humidity;BMP_temperature;BMP_pressure;BME280_temperature;BME280_humidity;BME280_pressure;Samples;Min_cycle;Max_cycle;Signal;HPM_P1;HPM_P2
2021/06/17 00:02:03;;;;;;;7.87;5.30;;;;;;;28.99;35.39;100955.81;5057062;28;20479;-52
2021/06/17 00:04:31;;;;;;;9.17;5.70;;;;;;;29.11;35.19;100952.75;5058377;28;20444;-54
2021/06/17 00:06:58;;;;;;;9.83;5.67;;;;;;;28.83;35.27;100948.31;5057114;28;20459;-50
2021/06/17 00:09:26;;;;;;;9.13;5.80;;;;;;;28.88;35.34;100942.88;5058094;28;20472;-53
2021/06/17 00:11:59;;;;;;;9.57;5.40;;;;;;;28.93;35.59;100940.94;5057281;28;20460;-51
2021/06/17 00:14:28;;;;;;;8.63;5.37;;;;;;;28.93;35.17;100942.72;5058202;28;20459;-52
2021/06/17 00:16:56;;;;;;;9.70;5.17;;;;;;;28.88;35.34;100934.91;5057051;28;20456;-48
2021/06/17 00:19:26;;;;;;;9.83;5.30;;;;;;;29.01;35.10;100937.16;5057121;28;20476;-50
2021/06/17 00:21:53;;;;;;;9.73;5.30;;;;;;;28.92;35.00;100933.88;5056766;28;20464;-50
2021/06/17 00:24:21;;;;;;;11.13;5.20;;;;;;;28.74;35.53;100937.09;5057886;28;20483;-49
2021/06/17 00:26:50;;;;;;;9.77;5.20;;;;;;;28.75;35.27;100939.72;5056520;28;20462;-51
2021/06/17 00:29:18;;;;;;;13.90;4.93;;;;;;;28.97;34.97;100936.41;5057374;28;20801;-53
2021/06/17 00:31:46;;;;;;;7.50;4.87;;;;;;;28.75;35.30;100933.53;5056480;28;20460;-49
2021/06/17 00:34:14;;;;;;;10.53;5.80;;;;;;;29.01;34.97;100935.38;5057418;28;20544;-48
2021/06/17 00:36:43;;;;;;;8.73;5.23;;;;;;;28.69;35.45;100942.56;5057274;28;20470;-50
2021/06/17 00:39:11;;;;;;;8.73;4.83;;;;;;;28.41;35.94;100941.63;5056337;28;20475;-50
2021/06/17 00:41:39;;;;;;;8.33;4.93;;;;;;;28.54;35.63;100935.94;5057284;28;20473;-49
2021/06/17 00:44:07;;;;;;;11.03;5.53;;;;;;;28.67;35.18;100931.97;5056111;28;20490;-48
2021/06/17 00:46:35;;;;;;;9.90;5.10;;;;;;;28.70;34.95;100939.84;5056997;28;20455;-54
2021/06/17 00:49:05;;;;;;;8.73;5.30;;;;;;;28.88;34.96;100931.38;5056014;28;20487;-54
2021/06/17 00:51:33;;;;;;;9.33;4.67;;;;;;;28.44;35.53;100933.59;5057326;28;20463;-53
2021/06/17 00:54:02;;;;;;;7.10;5.17;;;;;;;28.57;35.45;100933.19;5055397;28;20475;-54
2021/06/17 00:56:29;;;;;;;7.83;4.70;;;;;;;28.34;35.73;100931.25;5056679;28;20455;-51
2021/06/17 00:58:58;;;;;;;9.43;4.80;;;;;;;28.58;35.38;100929.63;5055268;28;20489;-51
2021/06/17 01:01:26;;;;;;;7.77;4.53;;;;;;;28.49;35.35;100929.94;5057064;28;20463;-49
2021/06/17 01:03:53;;;;;;;8.43;5.00;;;;;;;28.68;35.13;100936.41;5045242;28;20503;-51
2021/06/17 01:06:21;;;;;;;9.50;5.13;;;;;;;28.74;34.97;100924.72;5056881;28;20899;-50
2021/06/17 01:08:54;;;;;;;11.63;5.10;;;;;;;28.52;35.02;100929.81;5044508;28;20495;-51
2021/06/17 01:11:32;;;;;;;10.50;5.47;;;;;;;28.65;35.16;100927.66;5056936;28;20466;-51
2021/06/17 01:14:03;;;;;;;7.73;4.33;;;;;;;28.30;35.60;100922.53;5053646;28;20820;-54
2021/06/17 01:16:34;;;;;;;8.60;4.67;;;;;;;28.51;35.34;100923.63;5056335;28;20464;-54
2021/06/17 01:19:10;;;;;;;7.10;4.63;;;;;;;28.30;35.51;100928.69;5057880;28;20490;-51
2021/06/17 01:22:00;;;;;;;9.07;5.10;;;;;;;28.30;35.54;100914.56;5056885;28;20459;-50
2021/06/17 01:24:41;;;;;;;11.10;4.70;;;;;;;28.22;35.89;100921.88;5066254;28;20977;-55
2021/06/17 01:27:27;;;;;;;11.67;5.63;;;;;;;28.26;35.56;100907.63;5075212;28;20480;-53
2021/06/17 01:29:59;;;;;;;9.53;5.40;;;;;;;28.38;35.37;100907.25;5076352;28;20477;-52
2021/06/17 01:32:27;;;;;;;14.80;5.37;;;;;;;28.33;35.28;100911.81;5075777;28;20483;-52
2021/06/17 01:34:56;;;;;;;8.20;4.73;;;;;;;28.49;34.80;100909.56;5076439;28;20544;-53
2021/06/17 01:37:26;;;;;;;8.30;4.37;;;;;;;28.24;35.53;100904.16;5072119;28;20483;-53
2021/06/17 01:39:54;;;;;;;8.03;4.20;;;;;;;28.04;35.87;100897.59;5076391;28;20948;-51
2021/06/17 01:42:24;;;;;;;7.83;4.50;;;;;;;28.22;35.28;100896.22;5062285;28;20486;-51
2021/06/17 01:44:54;;;;;;;9.53;5.13;;;;;;;28.29;35.26;100902.22;5075364;28;21040;-50
2021/06/17 01:47:23;;;;;;;10.43;4.40;;;;;;;28.05;35.51;100899.38;5068874;28;20481;-51
2021/06/17 01:49:51;;;;;;;7.93;4.50;;;;;;;27.98;35.72;100900.44;5075841;28;21015;-50
2021/06/17 01:52:20;;;;;;;8.63;4.70;;;;;;;27.86;35.92;100894.59;5064694;28;20475;-52
2021/06/17 01:54:49;;;;;;;10.30;4.60;;;;;;;28.02;35.51;100899.44;5074771;28;20462;-54
2021/06/17 01:57:18;;;;;;;13.70;4.67;;;;;;;27.66;36.15;100900.44;5065014;28;20501;-49
2021/06/17 01:59:48;;;;;;;10.90;4.93;;;;;;;28.06;35.63;100900.22;5075473;28;20478;-48
2021/06/17 02:02:17;;;;;;;11.33;5.03;;;;;;;28.03;35.13;100895.88;5065446;28;20479;-47
2021/06/17 02:04:47;;;;;;;7.37;4.60;;;;;;;27.90;35.87;100900.69;5075110;28;20487;-49
2021/06/17 02:07:17;;;;;;;10.03;4.93;;;;;;;28.03;35.17;100895.88;5064180;28;20482;-51
2021/06/17 02:09:44;;;;;;;8.00;3.97;;;;;;;27.90;35.54;100896.22;5074941;28;20973;-51
2021/06/17 02:12:12;;;;;;;9.87;4.80;;;;;;;27.91;35.63;100897.09;5064620;28;20474;-50
2021/06/17 02:14:40;;;;;;;8.67;4.40;;;;;;;27.79;35.44;100898.34;5075078;28;20886;-54
2021/06/17 02:17:08;;;;;;;6.23;4.10;;;;;;;27.76;35.74;100893.09;5063571;28;20968;-51
2021/06/17 02:19:37;;;;;;;7.27;4.00;;;;;;;27.83;35.58;100894.66;5074517;28;20500;-51
2021/06/17 02:22:07;;;;;;;8.67;4.90;;;;;;;27.86;35.42;100894.59;5065328;28;20670;-52
2021/06/17 02:24:36;;;;;;;7.27;4.50;;;;;;;27.95;35.20;100896.13;5075664;28;20735;-52
2021/06/17 02:27:08;;;;;;;8.27;4.40;;;;;;;27.98;35.19;100903.09;5074000;28;20454;-52
2021/06/17 02:29:39;;;;;;;8.90;4.43;;;;;;;27.77;35.55;100892.19;5074863;28;20516;-50
2021/06/17 02:32:09;;;;;;;8.00;5.00;;;;;;;27.80;35.48;100893.88;5072183;28;20473;-49
2021/06/17 02:34:37;;;;;;;8.57;4.80;;;;;;;27.83;35.40;100899.13;5075620;28;20746;-50
2021/06/17 02:37:06;;;;;;;7.13;3.90;;;;;;;27.54;35.89;100895.47;5064462;28;20465;-50
2021/06/17 02:39:34;;;;;;;9.20;3.90;;;;;;;27.47;36.02;100887.69;5074415;28;20777;-50
2021/06/17 02:42:02;;;;;;;9.40;5.93;;;;;;;27.60;35.66;100887.38;5062428;28;20465;-50
2021/06/17 02:44:31;;;;;;;9.40;5.10;;;;;;;27.67;36.07;100880.13;5074262;28;20573;-51
2021/06/17 02:46:59;;;;;;;7.27;4.47;;;;;;;27.69;35.63;100883.59;5071781;28;20909;-52
2021/06/17 02:49:26;;;;;;;8.07;4.60;;;;;;;27.48;35.97;100873.50;5075149;28;20859;-50
2021/06/17 02:51:54;;;;;;;9.40;4.70;;;;;;;27.09;36.51;100878.97;5071641;28;20465;-52
2021/06/17 02:54:23;;;;;;;9.80;4.00;;;;;;;27.55;35.38;100866.28;5075089;28;20478;-51
2021/06/17 02:56:56;;;;;;;7.33;4.37;;;;;;;27.66;35.44;100865.13;5071245;28;20463;-50
2021/06/17 02:59:35;;;;;;;7.93;3.93;;;;;;;27.75;35.31;100860.44;5074844;28;20497;-48
2021/06/17 03:02:06;;;;;;;7.47;4.10;;;;;;;27.40;35.87;100861.38;5074353;28;20458;-51
2021/06/17 03:04:39;;;;;;;7.00;4.07;;;;;;;27.61;35.23;100862.63;5074953;28;20792;-50
2021/06/17 03:07:08;;;;;;;8.10;4.03;;;;;;;27.46;35.34;100869.16;5073702;28;20477;-53
2021/06/17 03:09:45;;;;;;;10.23;3.97;;;;;;;27.31;35.90;100866.03;5074648;28;20475;-50
2021/06/17 03:12:15;;;;;;;7.37;4.03;;;;;;;27.33;35.82;100872.16;5070358;28;20473;-52
2021/06/17 03:14:44;;;;;;;7.20;3.50;;;;;;;27.41;35.69;100871.06;5075164;28;20542;-54
2021/06/17 03:17:12;;;;;;;9.17;4.63;;;;;;;27.55;35.38;100868.94;5073452;28;20475;-49
2021/06/17 03:19:41;;;;;;;7.07;3.80;;;;;;;27.53;35.28;100864.59;5078483;28;20478;-50
2021/06/17 03:22:09;;;;;;;8.23;4.10;;;;;;;27.21;35.97;100872.47;5073281;28;20467;-51
2021/06/17 03:24:40;;;;;;;13.63;4.60;;;;;;;27.34;35.90;100876.53;5078480;28;20490;-49
2021/06/17 03:27:09;;;;;;;9.60;4.10;;;;;;;27.05;36.34;100869.34;5077446;28;20474;-49
2021/06/17 03:29:41;;;;;;;15.53;4.30;;;;;;;27.07;36.33;100872.84;5078705;28;20482;-49
2021/06/17 03:32:10;;;;;;;13.80;4.77;;;;;;;27.20;36.19;100868.09;5067545;28;20869;-51
2021/06/17 03:34:39;;;;;;;10.07;3.93;;;;;;;27.17;36.09;100874.34;5077998;28;20461;-50
2021/06/17 03:37:07;;;;;;;6.23;3.20;;;;;;;27.21;35.86;100875.13;5067264;28;20875;-53
2021/06/17 03:39:36;;;;;;;11.70;4.90;;;;;;;27.41;35.73;100881.66;5077966;28;20478;-52
2021/06/17 03:42:06;;;;;;;8.60;4.20;;;;;;;27.04;36.25;100881.75;5070852;28;20450;-50
2021/06/17 03:44:34;;;;;;;12.30;4.00;;;;;;;27.27;36.08;100874.97;5078109;28;20492;-52
2021/06/17 03:47:03;;;;;;;12.83;3.33;;;;;;;27.28;36.01;100879.34;5074268;28;20902;-51
2021/06/17 03:49:31;;;;;;;11.37;4.47;;;;;;;27.23;35.79;100873.31;5078303;28;20778;-51
2021/06/17 03:51:59;;;;;;;10.37;4.03;;;;;;;27.23;36.25;100868.03;5074473;28;20460;-49
2021/06/17 03:54:27;;;;;;;7.17;3.80;;;;;;;27.44;35.66;100871.00;5077997;28;20455;-52
2021/06/17 03:56:57;;;;;;;7.90;4.10;;;;;;;27.40;35.65;100870.22;5064345;28;20503;-48
2021/06/17 03:59:29;;;;;;;9.10;4.60;;;;;;;27.44;35.66;100865.69;5077094;28;20482;-51
2021/06/17 04:01:57;;;;;;;7.80;4.27;;;;;;;27.44;35.40;100869.22;5076999;28;20773;-51
2021/06/17 04:04:25;;;;;;;9.73;4.47;;;;;;;27.46;35.67;100858.56;5078266;28;20482;-51
2021/06/17 04:07:00;;;;;;;9.83;4.40;;;;;;;27.43;35.66;100863.97;5073779;28;20458;-52
2021/06/17 04:09:29;;;;;;;7.47;3.97;;;;;;;27.11;35.99;100860.41;5077916;28;20497;-53
2021/06/17 04:12:00;;;;;;;10.50;4.07;;;;;;;27.23;35.99;100866.22;5076914;28;20458;-48
2021/06/17 04:14:30;;;;;;;9.60;4.17;;;;;;;27.02;36.29;100867.66;5078219;28;20481;-52
2021/06/17 04:16:58;;;;;;;6.80;3.80;;;;;;;27.01;36.19;100868.56;5076368;28;20541;-50
2021/06/17 04:19:27;;;;;;;11.60;4.73;;;;;;;27.20;36.05;100868.09;5077633;28;20890;-53
2021/06/17 04:21:57;;;;;;;6.23;3.40;;;;;;;27.22;35.99;100866.28;5067492;28;20455;-51
2021/06/17 04:24:25;;;;;;;8.27;4.53;;;;;;;27.46;35.91;100863.88;5077007;28;20486;-53
2021/06/17 04:26:53;;;;;;;6.50;3.90;;;;;;;27.35;35.88;100857.09;5066481;28;20948;-48
2021/06/17 04:29:22;;;;;;;9.40;4.23;;;;;;;27.46;35.82;100858.56;5077188;28;20496;-54
2021/06/17 04:31:53;;;;;;;6.70;3.90;;;;;;;27.32;35.93;100862.47;5066534;28;21031;-51
2021/06/17 04:34:21;;;;;;;7.70;3.70;;;;;;;27.51;35.99;100851.38;5076773;28;20491;-54
2021/06/17 04:36:49;;;;;;;8.87;4.13;;;;;;;27.52;35.77;100861.06;5068623;28;20829;-49
2021/06/17 04:39:17;;;;;;;10.27;4.23;;;;;;;27.61;35.71;100858.19;5077184;28;20487;-54
2021/06/17 04:41:48;;;;;;;7.63;3.90;;;;;;;27.21;36.39;100848.66;5074230;28;20469;-54
2021/06/17 04:44:16;;;;;;;6.57;4.43;;;;;;;27.48;36.26;100848.81;5076961;28;21051;-50
2021/06/17 04:46:47;;;;;;;8.47;4.10;;;;;;;27.80;35.63;100849.72;5077386;28;20463;-54
2021/06/17 04:49:17;;;;;;;8.53;4.00;;;;;;;27.49;35.99;100851.41;5077104;28;20459;-48
2021/06/17 04:51:47;;;;;;;8.50;4.00;;;;;;;27.72;35.90;100857.00;5074777;28;20554;-52
2021/06/17 04:54:19;;;;;;;6.97;4.00;;;;;;;27.93;35.31;100852.00;5076813;28;20486;-50
2021/06/17 04:56:48;;;;;;;10.40;4.70;;;;;;;27.88;35.41;100860.94;5075667;28;20893;-53
2021/06/17 04:59:15;;;;;;;7.37;4.20;;;;;;;27.99;35.53;100846.53;5077022;28;20812;-51
2021/06/17 05:01:45;;;;;;;10.50;3.77;;;;;;;27.98;35.54;100844.75;5077213;28;20459;-48
2021/06/17 05:04:14;;;;;;;9.03;4.60;;;;;;;27.63;35.84;100848.41;5076502;28;20469;-51
2021/06/17 05:06:54;;;;;;;8.07;4.00;;;;;;;27.95;35.39;100858.13;5076956;28;20490;-51
2021/06/17 05:12:08;;;;;;;8.07;4.37;;;;;;;27.93;35.89;100857.31;5075274;28;20478;-50
2021/06/17 05:14:36;;;;;;;12.13;4.50;;;;;;;27.99;35.32;100859.78;5076799;28;20509;-52
2021/06/17 05:17:04;;;;;;;11.27;4.60;;;;;;;27.97;35.42;100859.81;5064986;28;20462;-49
2021/06/17 05:19:31;;;;;;;7.27;4.63;;;;;;;28.10;35.42;100860.31;5075637;28;20471;-54
2021/06/17 05:22:01;;;;;;;8.80;4.93;;;;;;;27.83;36.00;100859.38;5075570;28;20454;-51
2021/06/17 05:24:28;;;;;;;12.20;4.67;;;;;;;28.34;35.38;100860.50;5076590;28;20793;-49
2021/06/17 05:26:56;;;;;;;6.70;4.40;;;;;;;28.35;35.19;100856.06;5065374;28;20451;-51
2021/06/17 05:29:23;;;;;;;6.70;4.90;;;;;;;28.20;35.70;100858.25;5075050;28;20930;-50
2021/06/17 05:31:51;;;;;;;14.53;4.70;;;;;;;28.37;35.21;100867.50;5075191;28;20461;-51
2021/06/17 05:34:18;;;;;;;8.00;4.80;;;;;;;28.50;35.13;100863.53;5076360;28;20490;-51
2021/06/17 05:36:46;;;;;;;11.13;4.57;;;;;;;28.56;35.31;100860.69;5074829;28;20462;-51
2021/06/17 05:39:15;;;;;;;10.97;4.70;;;;;;;28.71;34.96;100861.13;5076160;28;20798;-53
2021/06/17 05:41:43;;;;;;;9.37;5.00;;;;;;;28.51;35.56;100867.06;5075405;28;20769;-52
2021/06/17 05:44:10;;;;;;;8.90;5.43;;;;;;;28.82;35.11;100858.09;5075557;28;20465;-48
2021/06/17 05:46:40;;;;;;;10.10;5.40;;;;;;;29.15;34.53;100862.31;5075594;28;20486;-54
2021/06/17 05:49:08;;;;;;;9.50;5.77;;;;;;;28.96;34.65;100861.19;5074086;28;20479;-51
2021/06/17 05:51:35;;;;;;;8.20;5.00;;;;;;;29.29;34.70;100861.84;5075941;28;20461;-49
2021/06/17 05:54:03;;;;;;;15.13;5.13;;;;;;;29.27;34.10;100855.75;5074566;28;20489;-49
2021/06/17 05:56:32;;;;;;;9.20;5.40;;;;;;;29.13;34.67;100861.53;5075497;28;20462;-51
2021/06/17 05:59:00;;;;;;;11.40;5.30;;;;;;;29.07;34.71;100874.09;5074411;28;20975;-52
2021/06/17 06:01:27;;;;;;;10.53;5.67;;;;;;;28.82;35.19;100874.88;5075102;28;20461;-51
2021/06/17 06:03:55;;;;;;;11.70;5.90;;;;;;;29.23;34.81;100873.56;5074283;28;20474;-51
2021/06/17 06:06:22;;;;;;;17.80;9.20;;;;;;;29.07;35.25;100874.09;5075419;28;20566;-52
2021/06/17 06:08:50;;;;;;;10.30;5.70;;;;;;;28.81;35.90;100880.25;5074084;28;20482;-53
2021/06/17 06:11:19;;;;;;;12.73;5.80;;;;;;;29.17;35.39;100879.94;5075513;28;20902;-50
2021/06/17 06:13:48;;;;;;;15.57;6.63;;;;;;;29.06;35.50;100879.47;5074182;28;20483;-49
2021/06/17 06:16:15;;;;;;;15.33;6.20;;;;;;;29.38;35.24;100882.78;5075272;28;20460;-53
2021/06/17 06:18:43;;;;;;;11.83;6.00;;;;;;;29.48;34.95;100886.88;5073647;28;20485;-51
2021/06/17 06:21:10;;;;;;;16.07;6.57;;;;;;;29.35;35.42;100885.53;5075744;28;20457;-51
2021/06/17 06:23:40;;;;;;;13.97;7.50;;;;;;;29.50;35.30;100877.09;5073901;28;20482;-54
2021/06/17 06:26:08;;;;;;;12.13;6.40;;;;;;;29.73;34.97;100885.97;5075355;28;20479;-47
2021/06/17 06:28:35;;;;;;;13.07;7.03;;;;;;;30.03;34.70;100891.06;5074072;28;20485;-50
2021/06/17 06:31:04;;;;;;;16.27;6.50;;;;;;;30.15;34.47;100888.91;5075586;28;20553;-51
2021/06/17 06:33:32;;;;;;;9.43;6.40;;;;;;;29.50;35.89;100892.16;5074013;28;20477;-53
2021/06/17 06:35:59;;;;;;;11.67;6.67;;;;;;;29.43;36.20;100891.44;5074224;28;20470;-50
2021/06/17 06:38:27;;;;;;;16.50;7.00;;;;;;;30.03;35.15;100903.50;5074129;28;20478;-55
2021/06/17 06:40:55;;;;;;;15.27;6.50;;;;;;;30.48;34.31;100896.47;5075479;28;20455;-49
2021/06/17 06:43:22;;;;;;;15.40;6.50;;;;;;;30.33;34.76;100891.78;5074003;28;20471;-49
2021/06/17 06:45:50;;;;;;;20.07;7.97;;;;;;;30.37;34.84;100890.72;5074897;28;20490;-52
2021/06/17 06:48:19;;;;;;;11.73;8.30;;;;;;;30.62;34.58;100897.72;5073815;28;20478;-46
2021/06/17 06:50:47;;;;;;;15.87;6.67;;;;;;;30.65;34.69;100897.63;5075233;28;20464;-51
2021/06/17 06:53:15;;;;;;;14.70;6.70;;;;;;;30.29;35.34;100897.22;5073831;28;20477;-55
2021/06/17 06:55:43;;;;;;;14.43;6.90;;;;;;;30.18;35.81;100899.41;5074332;28;20550;-52
2021/06/17 06:58:12;;;;;;;16.87;7.23;;;;;;;30.28;35.54;100900.81;5064281;28;20853;-53
2021/06/17 07:00:43;;;;;;;14.87;7.30;;;;;;;30.51;35.44;100909.69;5074707;28;20933;-52
2021/06/17 07:03:11;;;;;;;12.83;7.50;;;;;;;31.02;34.83;100904.09;5071896;28;20560;-54
2021/06/17 07:05:40;;;;;;;12.70;6.80;;;;;;;31.53;34.02;100906.41;5074716;28;20490;-51
2021/06/17 07:08:10;;;;;;;12.20;7.40;;;;;;;31.47;33.94;100912.00;5073791;28;20481;-51
2021/06/17 07:10:38;;;;;;;10.97;7.90;;;;;;;31.39;33.72;100913.19;5074646;28;20470;-53
2021/06/17 07:13:05;;;;;;;10.80;7.43;;;;;;;31.36;34.40;100916.00;5073729;28;20482;-52
2021/06/17 07:15:33;;;;;;;11.67;7.57;;;;;;;31.40;34.22;100922.06;5074492;28;20459;-49
2021/06/17 07:18:01;;;;;;;12.33;7.13;;;;;;;31.08;35.25;100917.16;5073672;28;20521;-55
2021/06/17 07:20:28;;;;;;;18.60;8.00;;;;;;;31.50;34.29;100910.06;5075105;28;20790;-52
2021/06/17 07:22:58;;;;;;;17.07;7.83;;;;;;;31.96;33.60;100908.06;5063420;28;20489;-49
2021/06/17 07:25:27;;;;;;;17.50;7.83;;;;;;;32.33;33.03;100901.88;5074115;28;20778;-55
2021/06/17 07:27:55;;;;;;;10.03;6.73;;;;;;;32.38;33.17;100898.97;5063274;28;20479;-53
2021/06/17 07:30:24;;;;;;;13.83;7.93;;;;;;;32.38;33.01;100903.44;5074574;28;20485;-47
2021/06/17 07:32:52;;;;;;;16.60;8.00;;;;;;;32.19;33.40;100909.69;5073613;28;20475;-50
2021/06/17 07:35:20;;;;;;;13.30;7.43;;;;;;;31.78;34.68;100914.16;5074752;28;20473;-54
2021/06/17 07:37:47;;;;;;;14.60;8.00;;;;;;;32.08;33.88;100904.84;5073019;28;20478;-49
2021/06/17 07:40:18;;;;;;;10.70;7.17;;;;;;;32.44;33.74;100904.06;5074671;28;20485;-50
2021/06/17 07:42:47;;;;;;;13.17;7.37;;;;;;;33.12;32.78;100905.19;5073492;28;20474;-48
2021/06/17 07:45:15;;;;;;;10.83;6.77;;;;;;;33.21;32.97;100914.53;5073890;28;20446;-53
2021/06/17 07:47:43;;;;;;;13.33;7.13;;;;;;;33.29;32.88;100905.25;5073067;28;20833;-52
2021/06/17 07:50:12;;;;;;;10.33;7.10;;;;;;;33.51;32.28;100911.25;5074572;28;20487;-49
2021/06/17 07:52:39;;;;;;;13.10;7.40;;;;;;;33.38;32.31;100902.13;5073312;28;20475;-52
2021/06/17 07:55:08;;;;;;;17.93;7.33;;;;;;;33.58;32.15;100905.56;5074567;28;20469;-49
2021/06/17 07:57:38;;;;;;;13.77;7.77;;;;;;;33.58;32.29;100916.25;5072946;28;20531;-56
2021/06/17 08:00:08;;;;;;;12.93;7.60;;;;;;;33.32;32.47;100916.66;5074491;28;20485;-48
2021/06/17 08:02:35;;;;;;;13.13;7.97;;;;;;;33.13;32.73;100916.75;5072760;28;20501;-52
2021/06/17 08:05:03;;;;;;;10.87;7.23;;;;;;;33.62;32.10;100917.84;5077057;28;20554;-55
2021/06/17 08:07:31;;;;;;;12.67;6.87;;;;;;;33.94;32.01;100912.56;5076374;28;20780;-54
2021/06/17 08:09:58;;;;;;;11.30;7.50;;;;;;;33.87;31.57;100905.81;5077983;28;20929;-53
2021/06/17 08:12:29;;;;;;;12.13;7.47;;;;;;;33.38;32.66;100915.47;5076864;28;20482;-53
2021/06/17 08:14:58;;;;;;;11.97;7.60;;;;;;;33.93;31.96;100913.47;5078181;28;20459;-55
2021/06/17 08:17:26;;;;;;;10.30;7.50;;;;;;;34.15;31.46;100910.53;5076256;28;20925;-53
2021/06/17 08:19:53;;;;;;;13.53;7.80;;;;;;;33.76;31.99;100915.28;5077124;28;20481;-48
2021/06/17 08:22:24;;;;;;;11.07;8.03;;;;;;;33.42;33.19;100909.00;5067296;28;20486;-53
2021/06/17 08:24:52;;;;;;;12.53;8.13;;;;;;;34.31;31.50;100907.88;5077392;28;20458;-50
2021/06/17 08:27:20;;;;;;;14.20;8.60;;;;;;;34.34;31.30;100909.47;5066185;28;20493;-54
2021/06/17 08:29:47;;;;;;;12.33;8.50;;;;;;;34.64;30.92;100903.34;5076861;28;20481;-53
2021/06/17 08:32:17;;;;;;;13.80;8.60;;;;;;;34.62;31.19;100899.91;5064678;28;20474;-50
2021/06/17 08:34:45;;;;;;;19.13;8.63;;;;;;;34.66;31.02;100897.91;5076810;28;20519;-53
2021/06/17 08:37:12;;;;;;;11.20;7.70;;;;;;;34.07;32.18;100897.59;5067158;28;20482;-51
2021/06/17 08:39:40;;;;;;;15.20;8.60;;;;;;;34.70;30.82;100903.00;5076432;28;20483;-51
2021/06/17 08:42:08;;;;;;;15.23;8.20;;;;;;;35.05;30.28;100888.47;5066556;28;20532;-50
2021/06/17 08:44:36;;;;;;;13.40;7.90;;;;;;;35.38;30.16;100890.06;5076800;28;20461;-52
2021/06/17 08:47:04;;;;;;;13.13;8.47;;;;;;;35.40;29.73;100887.28;5064616;28;20494;-49
2021/06/17 08:49:33;;;;;;;11.00;7.90;;;;;;;35.08;30.59;100882.97;5076621;28;20482;-53
2021/06/17 08:52:02;;;;;;;14.63;8.23;;;;;;;35.33;29.67;100881.47;5076639;28;20465;-53
2021/06/17 08:54:30;;;;;;;15.17;8.00;;;;;;;35.53;29.57;100884.72;5077470;28;20774;-51
2021/06/17 08:56:58;;;;;;;22.03;8.00;;;;;;;35.16;30.32;100878.94;5061642;28;20455;-50
2021/06/17 08:59:34;;;;;;;15.13;8.20;;;;;;;35.32;30.18;100868.16;5076144;28;20579;-54
2021/06/17 09:02:03;;;;;;;14.70;8.07;;;;;;;35.38;29.89;100868.63;5061720;28;20458;-53
2021/06/17 09:04:33;;;;;;;12.83;8.80;;;;;;;35.41;30.36;100860.41;5076662;28;20462;-53
2021/06/17 09:07:06;;;;;;;23.53;10.70;;;;;;;35.17;31.30;100862.78;5059872;28;20803;-51
2021/06/17 09:09:35;;;;;;;11.10;7.67;;;;;;;35.72;30.07;100860.31;5076050;28;20479;-54
2021/06/17 09:12:03;;;;;;;16.40;8.67;;;;;;;35.99;28.99;100861.34;5074584;28;20902;-55
2021/06/17 09:14:31;;;;;;;12.73;7.97;;;;;;;35.94;29.10;100856.28;5076643;28;20462;-50
2021/06/17 09:17:00;;;;;;;11.10;8.00;;;;;;;36.47;28.50;100856.41;5062551;28;20924;-55
2021/06/17 09:19:40;;;;;;;13.80;7.87;;;;;;;36.48;29.11;100857.25;5075802;28;20980;-52
2021/06/17 09:22:09;;;;;;;10.73;8.10;;;;;;;36.71;28.65;100853.06;5067482;28;20913;-53
2021/06/17 09:24:38;;;;;;;11.40;8.17;;;;;;;36.49;28.85;100854.47;5076646;28;20454;-52
2021/06/17 09:27:23;;;;;;;19.23;7.73;;;;;;;36.32;28.85;100852.94;5075518;28;20470;-52
2021/06/17 09:29:52;;;;;;;10.90;7.30;;;;;;;36.05;29.17;100840.34;5076010;28;20574;-53
2021/06/17 09:32:22;;;;;;;13.50;8.00;;;;;;;36.35;28.74;100841.13;5075403;28;20467;-52
2021/06/17 09:34:51;;;;;;;12.10;7.97;;;;;;;36.43;28.50;100838.78;5076382;28;20457;-50
2021/06/17 09:37:32;;;;;;;12.20;8.10;;;;;;;36.83;28.29;100834.38;5074876;28;20478;-54
2021/06/17 09:40:00;;;;;;;10.97;8.60;;;;;;;36.56;28.67;100827.22;5076403;28;20504;-51
2021/06/17 09:42:30;;;;;;;17.63;8.40;;;;;;;36.77;28.74;100824.91;5075392;28;20936;-54
2021/06/17 09:45:00;;;;;;;14.93;8.20;;;;;;;36.99;28.67;100816.22;5076449;28;20461;-52
2021/06/17 09:47:33;;;;;;;9.77;7.70;;;;;;;37.14;28.47;100826.91;5074032;28;20478;-50
2021/06/17 09:50:19;;;;;;;14.53;8.00;;;;;;;37.15;28.40;100821.41;5075901;28;20477;-53
2021/06/17 09:52:48;;;;;;;11.70;7.73;;;;;;;37.46;28.17;100821.06;5054979;28;20490;-50
2021/06/17 09:55:37;;;;;;;12.77;8.37;;;;;;;37.77;27.32;100826.09;5056152;28;20456;-51
2021/06/17 09:58:05;;;;;;;16.50;7.43;;;;;;;37.18;28.98;100824.84;5054657;28;20483;-54
2021/06/17 10:00:33;;;;;;;15.43;8.33;;;;;;;37.45;28.08;100819.34;5055922;28;20489;-53
2021/06/17 10:03:15;;;;;;;11.47;8.10;;;;;;;37.33;27.28;100821.09;5054867;28;20484;-54
2021/06/17 10:05:44;;;;;;;14.40;8.17;;;;;;;37.36;27.63;100830.78;5055067;28;20459;-54
2021/06/17 10:08:11;;;;;;;12.70;8.60;;;;;;;36.48;28.35;100831.28;5054444;28;20488;-50
2021/06/17 10:10:39;;;;;;;11.47;8.03;;;;;;;36.21;28.89;100833.97;5055679;28;20594;-54
2021/06/17 10:13:08;;;;;;;15.43;8.17;;;;;;;37.22;27.69;100835.31;5054576;28;20486;-53
2021/06/17 10:15:36;;;;;;;10.40;7.83;;;;;;;37.83;27.31;100831.03;5055498;28;20891;-55
2021/06/17 10:18:04;;;;;;;12.40;7.77;;;;;;;37.69;27.47;100832.88;5054406;28;20476;-53
2021/06/17 10:20:32;;;;;;;14.63;8.10;;;;;;;37.06;27.35;100826.56;5055706;28;20498;-52
2021/06/17 10:23:01;;;;;;;11.20;8.10;;;;;;;37.56;27.13;100832.88;5053666;28;20800;-53
2021/06/17 10:25:31;;;;;;;13.67;8.30;;;;;;;37.47;27.79;100830.84;5055235;28;20463;-52
2021/06/17 10:28:01;;;;;;;21.83;11.00;;;;;;;38.11;27.06;100833.50;5053885;28;20498;-48
2021/06/17 10:30:40;;;;;;;18.43;10.57;;;;;;;38.26;26.62;100839.59;5055408;28;20488;-49
2021/06/17 10:33:08;;;;;;;10.07;7.87;;;;;;;38.26;26.20;100827.00;5044454;28;20487;-50
2021/06/17 10:35:35;;;;;;;20.70;14.67;;;;;;;38.48;26.72;100819.97;5054619;28;20470;-52
2021/06/17 10:38:06;;;;;;;16.13;11.10;;;;;;;38.54;26.29;100822.22;5043292;28;20506;-53
2021/06/17 10:40:35;;;;;;;12.37;8.10;;;;;;;38.56;26.93;100822.13;5055134;28;20491;-56
2021/06/17 10:43:19;;;;;;;10.87;7.50;;;;;;;38.34;24.56;100821.88;5051332;28;20490;-49
2021/06/17 10:45:49;;;;;;;11.20;7.80;;;;;;;38.45;25.49;100826.44;5054969;28;20456;-53
2021/06/17 10:48:22;;;;;;;16.43;9.90;;;;;;;39.10;24.69;100815.25;5053811;28;20791;-54
2021/06/17 10:51:07;;;;;;;14.13;8.30;;;;;;;38.98;23.44;100813.50;5055115;28;20470;-52
2021/06/17 10:53:51;;;;;;;9.07;7.30;;;;;;;39.04;24.36;100813.06;5053893;28;20483;-51
2021/06/17 10:56:21;;;;;;;14.83;10.00;;;;;;;38.85;24.40;100810.94;5054677;28;20456;-56
2021/06/17 10:58:54;;;;;;;13.37;8.70;;;;;;;38.95;24.44;100801.13;5053565;28;20477;-50
2021/06/17 11:01:24;;;;;;;10.20;7.57;;;;;;;38.05;26.15;100806.09;5055146;28;20551;-53
2021/06/17 11:04:16;;;;;;;13.90;8.10;;;;;;;37.54;25.25;100815.13;5053897;28;20483;-55
2021/06/17 11:07:13;;;;;;;13.37;8.23;;;;;;;37.78;25.17;100804.44;5053620;28;20451;-56
2021/06/17 11:09:45;;;;;;;13.60;7.80;;;;;;;38.90;24.55;100800.63;5042536;28;20487;-51
2021/06/17 11:12:53;;;;;;;14.30;8.90;;;;;;;37.53;24.89;100805.34;5053649;28;21103;-53
2021/06/17 11:15:45;;;;;;;10.70;7.63;;;;;;;38.33;23.76;100809.41;5054804;28;20466;-50
2021/06/17 11:18:17;;;;;;;10.83;7.47;;;;;;;38.17;24.05;100804.31;5053421;28;20479;-52
2021/06/17 11:20:46;;;;;;;11.40;7.30;;;;;;;37.97;24.59;100803.06;5054877;28;20497;-53
2021/06/17 11:23:18;;;;;;;10.00;7.77;;;;;;;39.25;23.45;100798.84;5053540;28;20598;-55
2021/06/17 11:25:49;;;;;;;11.70;8.20;;;;;;;39.28;23.05;100798.59;5054446;28;20901;-51
2021/06/17 11:28:21;;;;;;;16.00;7.53;;;;;;;39.41;23.26;100787.69;5053222;28;20479;-53
2021/06/17 11:30:56;;;;;;;15.23;10.67;;;;;;;39.12;23.85;100789.06;5054660;28;20456;-55
2021/06/17 11:33:46;;;;;;;9.17;7.07;;;;;;;38.67;24.49;100797.91;5053542;28;20486;-50
2021/06/17 11:36:16;;;;;;;10.87;8.27;;;;;;;38.65;23.48;100785.53;5053733;28;20554;-53